Time;durP1;ratioP1;P1;durP2;ratioP2;P2;SDS_P1;SDS_P2;PMS_P1;PMS_P2;Temp;Humidity;BMP_temperature;BMP_pressure;BME280_temperature;BME280_humidity;BME280_pressure;Samples;Min_cycle;Max_cycle;Signal;HPM_P1;HPM_P2
2022/12/10 00:00:38;;;;;;;226.25;60.40;;;;;;;;;;5004832;28;20053;-67
2022/12/10 00:03:04;;;;;;;244.80;64.00;;;;;;;;;;5000608;28;20061;-68
2022/12/10 00:05:33;;;;;;;227.35;64.68;;;;;;;;;;5008158;28;20034;-67
2022/12/10 00:07:59;;;;;;;230.68;64.55;;;;;;;;;;5009984;28;20442;-67
2022/12/10 00:10:25;;;;;;;238.73;63.90;;;;;;;;;;5009192;28;20113;-68
2022/12/10 00:12:51;;;;;;;236.35;62.17;;;;;;;;;;5007927;28;20091;-68
2022/12/10 00:15:17;;;;;;;230.07;63.10;;;;;;;;;;5003700;28;20072;-67
2022/12/10 00:17:43;;;;;;;223.70;62.13;;;;;;;;;;5006147;28;20041;-67
2022/12/10 00:20:10;;;;;;;220.02;60.75;;;;;;;;;;5004725;28;20029;-68
2022/12/10 00:22:36;;;;;;;225.73;61.33;;;;;;;;;;5006127;28;20061;-69
2022/12/10 00:25:02;;;;;;;230.80;61.55;;;;;;;;;;5007556;28;20070;-68
2022/12/10 00:27:28;;;;;;;218.95;60.17;;;;;;;;;;5013005;28;20022;-68
2022/12/10 00:29:55;;;;;;;222.65;61.10;;;;;;;;;;4999332;28;20026;-69
2022/12/10 00:32:21;;;;;;;223.57;59.08;;;;;;;;;;5008454;28;20109;-68
2022/12/10 00:34:47;;;;;;;239.13;60.67;;;;;;;;;;5007912;28;20087;-69
2022/12/10 00:37:14;;;;;;;232.15;63.80;;;;;;;;;;5015948;28;20030;-68
2022/12/10 00:39:40;;;;;;;244.73;59.20;;;;;;;;;;5006799;28;20038;-68
2022/12/10 00:42:06;;;;;;;247.43;62.80;;;;;;;;;;4985196;28;20026;-67
2022/12/10 00:44:32;;;;;;;239.30;59.80;;;;;;;;;;5008766;28;20849;-69
2022/12/10 00:46:58;;;;;;;240.65;59.80;;;;;;;;;;5005387;28;20061;-68
2022/12/10 00:49:26;;;;;;;258.33;58.20;;;;;;;;;;5006831;28;20076;-67
2022/12/10 00:51:52;;;;;;;347.73;58.67;;;;;;;;;;5007524;28;20030;-69
2022/12/10 00:54:18;;;;;;;268.70;58.20;;;;;;;;;;5008291;28;20478;-68
2022/12/10 00:56:44;;;;;;;341.90;59.78;;;;;;;;;;5008252;28;20038;-67
2022/12/10 00:59:10;;;;;;;364.13;58.42;;;;;;;;;;4997045;28;20037;-67
2022/12/10 01:01:38;;;;;;;328.58;55.85;;;;;;;;;;5007499;28;20041;-67
2022/12/10 01:04:06;;;;;;;428.40;58.10;;;;;;;;;;5006669;28;20380;-67
2022/12/10 01:06:34;;;;;;;435.27;58.40;;;;;;;;;;5007713;28;20025;-69
2022/12/10 01:09:03;;;;;;;410.85;57.38;;;;;;;;;;5007393;28;20058;-69
2022/12/10 01:11:30;;;;;;;413.50;53.40;;;;;;;;;;5006963;28;20060;-68
2022/12/10 01:13:56;;;;;;;530.85;63.97;;;;;;;;;;4990422;28;20026;-68
2022/12/10 01:16:23;;;;;;;501.92;58.83;;;;;;;;;;5021427;28;20040;-68
2022/12/10 01:18:52;;;;;;;596.22;57.45;;;;;;;;;;4998047;28;20083;-68
2022/12/10 01:21:19;;;;;;;435.13;56.95;;;;;;;;;;5007712;28;20372;-68
2022/12/10 01:23:46;;;;;;;392.83;51.97;;;;;;;;;;4998116;28;20041;-70
2022/12/10 01:26:13;;;;;;;542.08;57.85;;;;;;;;;;5017600;28;20034;-68
2022/12/10 01:28:40;;;;;;;453.95;54.67;;;;;;;;;;5018225;28;20030;-69
2022/12/10 01:31:14;;;;;;;392.13;52.15;;;;;;;;;;5004426;28;20064;-69
2022/12/10 01:33:41;;;;;;;450.27;59.05;;;;;;;;;;5002331;28;20030;-69
2022/12/10 01:36:09;;;;;;;512.17;60.42;;;;;;;;;;5003687;28;20240;-69
2022/12/10 01:38:36;;;;;;;460.13;59.00;;;;;;;;;;5005049;28;20038;-69
2022/12/10 01:41:04;;;;;;;395.83;56.50;;;;;;;;;;4996315;28;20073;-69
2022/12/10 01:43:50;;;;;;;449.70;59.03;;;;;;;;;;4998600;28;20049;-70
2022/12/10 01:46:16;;;;;;;475.08;60.50;;;;;;;;;;5005518;28;20025;-69
2022/12/10 01:48:43;;;;;;;456.20;61.20;;;;;;;;;;4994741;28;20312;-69
2022/12/10 01:51:10;;;;;;;511.08;64.18;;;;;;;;;;4985848;28;20532;-70
2022/12/10 01:53:36;;;;;;;480.38;58.28;;;;;;;;;;4984717;28;20078;-70
2022/12/10 01:56:02;;;;;;;505.67;63.35;;;;;;;;;;5011819;28;20152;-69
2022/12/10 01:58:28;;;;;;;509.55;62.60;;;;;;;;;;5004108;28;20588;-69
2022/12/10 02:01:07;;;;;;;399.77;56.30;;;;;;;;;;5005308;28;20040;-69
2022/12/10 02:03:39;;;;;;;425.50;59.17;;;;;;;;;;5020174;28;20137;-69
2022/12/10 02:06:18;;;;;;;466.75;60.97;;;;;;;;;;5001532;28;20084;-69
2022/12/10 02:08:51;;;;;;;430.77;59.92;;;;;;;;;;4995361;28;20048;-69
2022/12/10 02:11:23;;;;;;;492.83;62.90;;;;;;;;;;5007218;28;20030;-69
2022/12/10 02:13:55;;;;;;;498.23;65.28;;;;;;;;;;5000906;28;20033;-68
2022/12/10 02:16:32;;;;;;;527.97;66.75;;;;;;;;;;4997904;28;20033;-68
2022/12/10 02:19:03;;;;;;;532.00;65.68;;;;;;;;;;5003767;28;20029;-68
2022/12/10 02:21:32;;;;;;;530.25;66.40;;;;;;;;;;5001602;28;20065;-67
2022/12/10 02:24:01;;;;;;;509.10;64.00;;;;;;;;;;4988860;28;20487;-69
2022/12/10 02:26:41;;;;;;;600.88;70.82;;;;;;;;;;4990989;28;20018;-70
2022/12/10 02:29:12;;;;;;;606.30;65.78;;;;;;;;;;4992903;28;20109;-69
2022/12/10 02:31:43;;;;;;;568.05;67.53;;;;;;;;;;5007069;28;20030;-68
2022/12/10 02:34:11;;;;;;;547.15;72.32;;;;;;;;;;5016023;28;20549;-69
2022/12/10 02:36:40;;;;;;;575.47;66.72;;;;;;;;;;5005405;28;20042;-69
2022/12/10 02:39:11;;;;;;;620.80;71.90;;;;;;;;;;5018338;28;20026;-68
2022/12/10 02:41:46;;;;;;;476.65;71.40;;;;;;;;;;5027416;28;20034;-68
2022/12/10 02:44:13;;;;;;;644.10;72.22;;;;;;;;;;5031985;28;20026;-68
2022/12/10 02:46:40;;;;;;;651.03;73.25;;;;;;;;;;5018508;28;20121;-68
2022/12/10 02:49:09;;;;;;;529.97;71.90;;;;;;;;;;5017080;28;20026;-69
2022/12/10 02:51:35;;;;;;;717.17;75.32;;;;;;;;;;5025740;28;20028;-68
2022/12/10 02:54:03;;;;;;;469.10;68.65;;;;;;;;;;5006783;28;20108;-68
2022/12/10 02:56:55;;;;;;;764.28;77.63;;;;;;;;;;5001066;28;20175;-68
2022/12/10 02:59:37;;;;;;;683.10;76.22;;;;;;;;;;5004657;28;20696;-68
2022/12/10 03:02:10;;;;;;;609.25;70.20;;;;;;;;;;5001247;28;20053;-68
2022/12/10 03:04:44;;;;;;;688.15;68.88;;;;;;;;;;5003954;28;20038;-69
2022/12/10 03:07:17;;;;;;;750.47;69.43;;;;;;;;;;5005015;28;20077;-68
2022/12/10 03:09:48;;;;;;;804.78;74.75;;;;;;;;;;5008128;28;20037;-68
2022/12/10 03:12:27;;;;;;;750.65;71.95;;;;;;;;;;5006477;28;20503;-68
2022/12/10 03:14:55;;;;;;;996.25;87.18;;;;;;;;;;5006177;28;20027;-68
2022/12/10 03:17:21;;;;;;;885.90;78.07;;;;;;;;;;5005073;28;20091;-68
2022/12/10 03:20:07;;;;;;;821.95;77.93;;;;;;;;;;5005240;28;20038;-68
2022/12/10 03:22:35;;;;;;;1072.97;94.05;;;;;;;;;;5009598;28;20017;-68
2022/12/10 03:25:01;;;;;;;766.17;73.85;;;;;;;;;;5007479;28;20029;-68
2022/12/10 03:27:29;;;;;;;785.30;82.07;;;;;;;;;;5005454;28;20117;-68
2022/12/10 03:29:57;;;;;;;747.10;72.82;;;;;;;;;;5005299;28;20021;-68
2022/12/10 03:32:24;;;;;;;577.10;68.47;;;;;;;;;;5004866;28;20631;-68
2022/12/10 03:34:52;;;;;;;516.65;66.28;;;;;;;;;;5006128;28;20037;-68
2022/12/10 03:37:18;;;;;;;774.83;76.47;;;;;;;;;;5006057;28;20038;-68
2022/12/10 03:39:45;;;;;;;764.53;73.63;;;;;;;;;;5004888;28;20513;-68
2022/12/10 03:42:11;;;;;;;955.67;83.47;;;;;;;;;;5010569;28;20030;-68
2022/12/10 03:44:40;;;;;;;746.28;72.57;;;;;;;;;;5003220;28;20080;-67
2022/12/10 03:47:10;;;;;;;850.60;78.75;;;;;;;;;;5003959;28;20133;-68
2022/12/10 03:49:36;;;;;;;735.53;74.50;;;;;;;;;;5009372;28;20050;-68
2022/12/10 03:52:03;;;;;;;691.00;68.13;;;;;;;;;;5009497;28;20122;-68
2022/12/10 03:54:29;;;;;;;659.22;65.47;;;;;;;;;;5017996;28;20053;-69
2022/12/10 03:56:55;;;;;;;888.05;75.47;;;;;;;;;;5006381;28;20092;-69
2022/12/10 03:59:21;;;;;;;664.03;68.35;;;;;;;;;;4993628;28;20107;-69
2022/12/10 04:01:47;;;;;;;684.42;73.63;;;;;;;;;;5008498;28;20093;-68
2022/12/10 04:04:14;;;;;;;955.92;83.97;;;;;;;;;;5007535;28;20141;-68
2022/12/10 04:06:41;;;;;;;998.75;82.28;;;;;;;;;;5008953;28;20044;-68
2022/12/10 04:09:09;;;;;;;806.83;76.65;;;;;;;;;;5007836;28;20450;-70
2022/12/10 04:11:35;;;;;;;685.78;71.07;;;;;;;;;;5009515;28;20029;-69
2022/12/10 04:16:46;;;;;;;681.00;74.40;;;;;;;;;;5005569;28;20045;-69
2022/12/10 04:19:13;;;;;;;864.10;80.10;;;;;;;;;;5006322;28;20034;-69
2022/12/10 04:27:18;;;;;;;819.95;79.03;;;;;;;;;;5004685;28;20033;-68
2022/12/10 04:29:45;;;;;;;846.00;81.50;;;;;;;;;;5007104;28;20113;-68
2022/12/10 04:32:11;;;;;;;857.50;84.32;;;;;;;;;;5005897;28;20159;-68
2022/12/10 04:34:37;;;;;;;904.20;85.30;;;;;;;;;;5006191;28;20030;-67
2022/12/10 04:37:04;;;;;;;660.80;72.63;;;;;;;;;;4995710;28;20080;-69
2022/12/10 04:39:30;;;;;;;650.75;70.07;;;;;;;;;;5008017;28;20109;-69
2022/12/10 04:41:56;;;;;;;678.70;70.72;;;;;;;;;;5011549;28;20136;-69
2022/12/10 04:44:23;;;;;;;647.10;72.05;;;;;;;;;;5016094;28;20133;-69
2022/12/10 04:46:49;;;;;;;742.53;74.63;;;;;;;;;;5013981;28;20042;-69
2022/12/10 04:49:15;;;;;;;661.95;71.55;;;;;;;;;;5024716;28;21248;-71
2022/12/10 04:51:42;;;;;;;725.30;71.55;;;;;;;;;;5021976;28;20017;-66
2022/12/10 04:54:08;;;;;;;764.45;80.65;;;;;;;;;;5011737;28;20033;-68
2022/12/10 04:56:34;;;;;;;843.25;76.15;;;;;;;;;;5016108;28;20026;-70
2022/12/10 04:59:01;;;;;;;732.40;71.30;;;;;;;;;;5014727;28;20072;-70
2022/12/10 05:01:28;;;;;;;697.22;72.40;;;;;;;;;;5017225;28;20037;-69
2022/12/10 05:03:54;;;;;;;753.10;75.88;;;;;;;;;;5008062;28;20033;-69
2022/12/10 05:06:20;;;;;;;713.72;76.70;;;;;;;;;;5007959;28;20056;-69
2022/12/10 05:08:47;;;;;;;672.45;75.57;;;;;;;;;;5007049;28;20113;-67
2022/12/10 05:11:15;;;;;;;642.28;69.72;;;;;;;;;;5008295;28;20061;-70
2022/12/10 05:13:41;;;;;;;729.50;73.50;;;;;;;;;;5007280;28;20514;-69
2022/12/10 05:16:10;;;;;;;689.30;71.15;;;;;;;;;;5002789;28;20065;-69
2022/12/10 05:18:36;;;;;;;621.35;67.50;;;;;;;;;;5007501;28;20456;-69
2022/12/10 05:21:03;;;;;;;635.95;66.03;;;;;;;;;;5006084;28;20060;-69
2022/12/10 05:23:29;;;;;;;722.28;75.32;;;;;;;;;;5007746;28;20041;-69
2022/12/10 05:25:59;;;;;;;506.88;65.85;;;;;;;;;;5007885;28;20030;-69
2022/12/10 05:28:25;;;;;;;651.63;72.43;;;;;;;;;;5007121;28;20025;-69
2022/12/10 05:30:51;;;;;;;607.35;66.40;;;;;;;;;;5003467;28;20190;-68
2022/12/10 05:33:18;;;;;;;457.75;57.22;;;;;;;;;;5005787;28;20176;-69
2022/12/10 05:35:51;;;;;;;632.42;65.28;;;;;;;;;;5005575;28;20073;-69
2022/12/10 05:38:17;;;;;;;590.65;64.93;;;;;;;;;;4998439;28;20038;-69
2022/12/10 05:40:43;;;;;;;492.20;64.57;;;;;;;;;;5006435;28;20356;-69
2022/12/10 05:43:09;;;;;;;529.42;67.03;;;;;;;;;;5007115;28;20033;-69
2022/12/10 05:45:36;;;;;;;580.58;65.88;;;;;;;;;;5007344;28;20030;-70
2022/12/10 05:48:02;;;;;;;640.10;68.25;;;;;;;;;;5008012;28;20034;-68
2022/12/10 05:50:28;;;;;;;552.72;64.70;;;;;;;;;;4998404;28;20029;-69
2022/12/10 05:52:54;;;;;;;570.95;61.00;;;;;;;;;;5005810;28;20036;-69
2022/12/10 05:55:20;;;;;;;544.63;57.78;;;;;;;;;;5008428;28;20071;-69
2022/12/10 05:57:46;;;;;;;553.08;58.80;;;;;;;;;;5006352;28;20046;-69
2022/12/10 06:00:13;;;;;;;523.15;57.63;;;;;;;;;;5007421;28;20108;-69
2022/12/10 06:02:39;;;;;;;530.35;60.22;;;;;;;;;;5005002;28;20576;-69
2022/12/10 06:05:05;;;;;;;498.75;55.25;;;;;;;;;;5003462;28;20372;-69
2022/12/10 06:07:31;;;;;;;481.25;52.67;;;;;;;;;;5006348;28;20037;-69
2022/12/10 06:09:57;;;;;;;442.35;56.00;;;;;;;;;;5008440;28;20061;-70
2022/12/10 06:12:23;;;;;;;466.77;57.28;;;;;;;;;;5003777;28;20036;-68
2022/12/10 06:14:50;;;;;;;484.55;54.88;;;;;;;;;;5005402;28;20042;-67
2022/12/10 06:17:16;;;;;;;479.45;53.92;;;;;;;;;;5006261;28;20095;-67
2022/12/10 06:19:42;;;;;;;548.53;58.05;;;;;;;;;;5007894;28;20041;-69
2022/12/10 06:22:08;;;;;;;537.25;53.90;;;;;;;;;;5002550;28;20203;-69
2022/12/10 06:24:34;;;;;;;695.40;68.45;;;;;;;;;;5006039;28;20052;-69
2022/12/10 06:27:01;;;;;;;622.78;64.28;;;;;;;;;;4987240;28;20034;-70
2022/12/10 06:29:27;;;;;;;790.03;75.68;;;;;;;;;;5004483;28;20168;-68
2022/12/10 06:31:53;;;;;;;871.13;78.88;;;;;;;;;;5006529;28;20022;-68
2022/12/10 06:34:19;;;;;;;556.78;60.05;;;;;;;;;;5005359;28;20033;-69
2022/12/10 06:36:45;;;;;;;541.80;58.85;;;;;;;;;;5003990;28;20053;-69
2022/12/10 06:39:11;;;;;;;478.65;54.45;;;;;;;;;;5006790;28;20083;-69
2022/12/10 06:41:38;;;;;;;531.10;58.40;;;;;;;;;;5007189;28;20398;-69
2022/12/10 06:44:08;;;;;;;504.90;57.40;;;;;;;;;;4995077;28;20037;-69
2022/12/10 06:46:34;;;;;;;447.25;54.40;;;;;;;;;;4999463;28;20566;-70
2022/12/10 06:49:00;;;;;;;434.48;53.83;;;;;;;;;;5002285;28;20041;-69
2022/12/10 06:51:27;;;;;;;466.80;52.08;;;;;;;;;;5002417;28;20041;-69
2022/12/10 06:53:53;;;;;;;530.88;57.45;;;;;;;;;;5008880;28;20071;-69
2022/12/10 06:56:19;;;;;;;465.80;55.55;;;;;;;;;;5012444;28;20044;-70
2022/12/10 06:58:46;;;;;;;481.50;58.22;;;;;;;;;;5007912;28;20041;-71
2022/12/10 07:01:25;;;;;;;454.48;56.40;;;;;;;;;;5000877;28;20036;-70
2022/12/10 07:03:55;;;;;;;468.55;60.00;;;;;;;;;;5005887;28;20663;-70
2022/12/10 07:06:23;;;;;;;257.57;39.57;;;;;;;;;;5007031;28;20238;-71
2022/12/10 07:08:49;;;;;;;372.15;51.55;;;;;;;;;;5004835;28;20030;-71
2022/12/10 07:11:16;;;;;;;391.55;54.83;;;;;;;;;;5007464;28;20375;-70
2022/12/10 07:13:43;;;;;;;365.00;51.20;;;;;;;;;;5006389;28;20033;-71
2022/12/10 07:16:13;;;;;;;403.63;52.00;;;;;;;;;;5003591;28;20116;-69
2022/12/10 07:18:39;;;;;;;368.23;54.63;;;;;;;;;;5012750;28;20034;-71
2022/12/10 07:21:24;;;;;;;415.10;55.83;;;;;;;;;;5011503;28;20073;-70
2022/12/10 07:23:50;;;;;;;368.35;54.50;;;;;;;;;;5009930;28;20056;-69
2022/12/10 07:26:17;;;;;;;412.75;63.05;;;;;;;;;;5004515;28;20121;-69
2022/12/10 07:28:43;;;;;;;388.80;61.40;;;;;;;;;;5007423;28;20104;-69
2022/12/10 07:31:10;;;;;;;283.80;53.88;;;;;;;;;;5009916;28;20071;-70
2022/12/10 07:33:36;;;;;;;364.77;58.13;;;;;;;;;;5012125;28;20034;-70
2022/12/10 07:36:06;;;;;;;432.23;59.53;;;;;;;;;;5012202;28;20152;-71
2022/12/10 07:38:32;;;;;;;337.13;44.13;;;;;;;;;;5012330;28;20077;-70
2022/12/10 07:41:02;;;;;;;435.63;60.83;;;;;;;;;;5015274;28;20104;-69
2022/12/10 07:43:28;;;;;;;336.50;54.30;;;;;;;;;;5012648;28;20095;-70
2022/12/10 07:45:54;;;;;;;425.63;59.08;;;;;;;;;;5009478;28;20491;-70
2022/12/10 07:48:21;;;;;;;372.02;58.85;;;;;;;;;;5013639;28;20034;-69
2022/12/10 07:50:47;;;;;;;380.30;58.55;;;;;;;;;;4995007;28;20026;-68
2022/12/10 07:53:14;;;;;;;339.27;54.33;;;;;;;;;;5015701;28;20029;-71
2022/12/10 07:55:40;;;;;;;369.25;56.15;;;;;;;;;;4994476;28;20034;-70
2022/12/10 07:58:06;;;;;;;348.35;60.78;;;;;;;;;;5010076;28;20041;-69
2022/12/10 08:00:32;;;;;;;371.65;58.60;;;;;;;;;;4974370;28;20065;-70
2022/12/10 08:02:58;;;;;;;393.35;57.78;;;;;;;;;;5008731;28;20053;-70
2022/12/10 08:05:25;;;;;;;348.63;55.38;;;;;;;;;;5011819;28;20115;-70
2022/12/10 08:07:51;;;;;;;363.58;57.75;;;;;;;;;;5009699;28;20057;-71
2022/12/10 08:10:17;;;;;;;377.88;58.97;;;;;;;;;;5009507;28;20095;-70
2022/12/10 08:12:43;;;;;;;382.20;60.13;;;;;;;;;;5008507;28;20064;-70
2022/12/10 08:15:09;;;;;;;451.08;63.60;;;;;;;;;;5007053;28;20172;-70
2022/12/10 08:17:36;;;;;;;376.73;62.00;;;;;;;;;;5008010;28;20022;-71
2022/12/10 08:20:02;;;;;;;372.02;65.25;;;;;;;;;;5007313;28;20026;-71
2022/12/10 08:22:28;;;;;;;458.52;63.13;;;;;;;;;;5010628;28;20025;-71
2022/12/10 08:24:55;;;;;;;464.58;66.32;;;;;;;;;;5008968;28;20038;-71
2022/12/10 08:27:21;;;;;;;420.92;62.45;;;;;;;;;;5017178;28;20135;-71
2022/12/10 08:29:47;;;;;;;336.98;57.70;;;;;;;;;;5010279;28;20049;-70
2022/12/10 08:32:13;;;;;;;403.90;62.50;;;;;;;;;;4994129;28;20033;-69
2022/12/10 08:34:40;;;;;;;386.83;65.65;;;;;;;;;;5004298;28;20038;-70
2022/12/10 08:37:06;;;;;;;366.15;63.20;;;;;;;;;;5009801;28;20113;-70
2022/12/10 08:39:33;;;;;;;308.25;61.30;;;;;;;;;;5011207;28;20395;-70
2022/12/10 08:41:59;;;;;;;436.63;70.50;;;;;;;;;;5010173;28;20435;-71
2022/12/10 08:44:25;;;;;;;487.90;67.70;;;;;;;;;;5010377;28;20100;-71
2022/12/10 08:46:51;;;;;;;393.35;61.25;;;;;;;;;;5009857;28;20350;-71
2022/12/10 08:49:17;;;;;;;332.38;59.58;;;;;;;;;;5012332;28;20120;-70
2022/12/10 08:51:44;;;;;;;410.33;61.08;;;;;;;;;;5009112;28;20431;-70
2022/12/10 08:54:10;;;;;;;381.25;61.63;;;;;;;;;;5009614;28;20115;-70
2022/12/10 08:56:36;;;;;;;370.58;60.25;;;;;;;;;;5009450;28;20048;-70
2022/12/10 08:59:02;;;;;;;285.65;53.75;;;;;;;;;;5010113;28;20041;-70
2022/12/10 09:01:28;;;;;;;288.27;55.90;;;;;;;;;;5007914;28;20038;-69
2022/12/10 09:04:15;;;;;;;387.55;61.42;;;;;;;;;;5007210;28;20088;-70
2022/12/10 09:06:41;;;;;;;384.77;63.15;;;;;;;;;;5021881;28;20025;-71
2022/12/10 09:09:08;;;;;;;400.17;62.05;;;;;;;;;;5022131;28;20037;-69
2022/12/10 09:11:35;;;;;;;397.52;61.08;;;;;;;;;;5007623;28;20057;-70
2022/12/10 09:14:02;;;;;;;399.48;63.88;;;;;;;;;;5011465;28;20266;-71
2022/12/10 09:16:32;;;;;;;406.00;64.15;;;;;;;;;;5016488;28;20030;-70
2022/12/10 09:18:58;;;;;;;390.15;59.47;;;;;;;;;;5005082;28;20061;-70
2022/12/10 09:21:25;;;;;;;350.77;57.83;;;;;;;;;;4997144;28;20036;-70
2022/12/10 09:23:51;;;;;;;355.55;60.53;;;;;;;;;;4995525;28;20034;-70
2022/12/10 09:26:18;;;;;;;398.20;59.58;;;;;;;;;;5018609;28;20037;-71
2022/12/10 09:28:44;;;;;;;320.45;56.63;;;;;;;;;;5007142;28;20022;-69
2022/12/10 09:31:11;;;;;;;333.27;57.15;;;;;;;;;;4994914;28;20034;-72
2022/12/10 09:33:38;;;;;;;320.17;62.00;;;;;;;;;;5007304;28;20036;-70
2022/12/10 09:36:08;;;;;;;402.65;61.95;;;;;;;;;;5009398;28;20038;-69
2022/12/10 09:38:35;;;;;;;338.55;62.13;;;;;;;;;;5016902;28;20057;-69
2022/12/10 09:41:24;;;;;;;367.88;56.30;;;;;;;;;;5004157;28;20022;-70
2022/12/10 09:43:59;;;;;;;327.17;54.40;;;;;;;;;;4983257;28;20041;-70
2022/12/10 09:46:46;;;;;;;321.77;54.13;;;;;;;;;;5012262;28;20072;-70
2022/12/10 09:49:22;;;;;;;362.88;58.80;;;;;;;;;;4997789;28;20133;-69
2022/12/10 09:51:49;;;;;;;307.83;53.58;;;;;;;;;;4989251;28;20414;-69
2022/12/10 09:54:18;;;;;;;409.83;56.10;;;;;;;;;;5006688;28;20022;-69
2022/12/10 09:56:45;;;;;;;400.27;59.30;;;;;;;;;;5007802;28;20159;-71
2022/12/10 09:59:30;;;;;;;454.35;57.30;;;;;;;;;;5003552;28;20048;-68
2022/12/10 10:02:11;;;;;;;369.50;53.90;;;;;;;;;;5004502;28;20049;-70
2022/12/10 10:04:37;;;;;;;344.98;54.88;;;;;;;;;;5003799;28;20039;-70
2022/12/10 10:07:04;;;;;;;353.23;54.15;;;;;;;;;;5005509;28;20030;-68
2022/12/10 10:09:32;;;;;;;344.42;55.80;;;;;;;;;;5007375;28;20046;-71
2022/12/10 10:11:58;;;;;;;300.52;51.60;;;;;;;;;;4991239;28;20042;-70
2022/12/10 10:14:29;;;;;;;355.45;55.60;;;;;;;;;;4991384;28;20384;-69
2022/12/10 10:16:59;;;;;;;296.58;48.90;;;;;;;;;;5009607;28;20037;-71
2022/12/10 10:19:27;;;;;;;305.23;52.58;;;;;;;;;;5007861;28;20399;-71
2022/12/10 10:21:54;;;;;;;333.00;56.08;;;;;;;;;;5007358;28;20076;-70
2022/12/10 10:24:21;;;;;;;317.77;54.00;;;;;;;;;;5009715;28;20048;-70
2022/12/10 10:26:48;;;;;;;351.92;56.58;;;;;;;;;;5017469;28;20018;-70
2022/12/10 10:29:17;;;;;;;328.60;56.08;;;;;;;;;;5008858;28;20387;-71
2022/12/10 10:31:44;;;;;;;436.52;62.90;;;;;;;;;;5007454;28;20116;-70
2022/12/10 10:34:18;;;;;;;428.73;56.92;;;;;;;;;;5009305;28;20081;-71
2022/12/10 10:36:44;;;;;;;459.23;61.60;;;;;;;;;;5010723;28;20450;-70
2022/12/10 10:39:20;;;;;;;356.40;55.47;;;;;;;;;;5010556;28;20034;-70
2022/12/10 10:41:48;;;;;;;423.85;58.45;;;;;;;;;;5010142;28;20025;-70
2022/12/10 10:44:19;;;;;;;395.90;55.75;;;;;;;;;;5007086;28;20041;-69
2022/12/10 10:46:46;;;;;;;441.55;57.13;;;;;;;;;;5007721;28;20490;-70
2022/12/10 10:49:22;;;;;;;329.10;52.22;;;;;;;;;;5008159;28;20045;-71
2022/12/10 10:51:48;;;;;;;353.13;48.05;;;;;;;;;;5010637;28;20319;-70
2022/12/10 10:54:32;;;;;;;408.90;49.90;;;;;;;;;;5004566;28;20030;-71
2022/12/10 10:57:01;;;;;;;290.67;48.33;;;;;;;;;;5011974;28;20089;-70
2022/12/10 10:59:32;;;;;;;341.83;51.80;;;;;;;;;;5013709;28;20033;-70
2022/12/10 11:01:58;;;;;;;;;;;;;;;;;;5009649;28;20407;-68
2022/12/10 11:04:32;;;;;;;331.63;51.90;;;;;;;;;;5008470;28;19917;-70
2022/12/10 11:07:01;;;;;;;352.73;54.25;;;;;;;;;;4993087;28;20048;-71
2022/12/10 11:09:29;;;;;;;411.27;53.67;;;;;;;;;;5013653;28;20021;-71
2022/12/10 11:12:00;;;;;;;399.85;53.40;;;;;;;;;;5011212;28;20025;-70
2022/12/10 11:14:26;;;;;;;389.65;49.85;;;;;;;;;;5010764;28;20414;-68
2022/12/10 11:17:21;;;;;;;407.58;53.65;;;;;;;;;;4994415;28;20037;-73
2022/12/10 11:19:53;;;;;;;388.05;51.78;;;;;;;;;;5003310;28;20052;-70
2022/12/10 11:22:24;;;;;;;370.60;48.65;;;;;;;;;;5015644;28;20030;-68
2022/12/10 11:24:50;;;;;;;368.55;51.20;;;;;;;;;;5015304;28;20103;-71
2022/12/10 11:27:35;;;;;;;332.25;51.05;;;;;;;;;;5025810;28;20018;-69
2022/12/10 11:30:07;;;;;;;340.45;49.65;;;;;;;;;;5024300;28;20034;-72
2022/12/10 11:32:41;;;;;;;336.00;48.58;;;;;;;;;;5011217;28;20137;-71
2022/12/10 11:35:38;;;;;;;352.50;50.00;;;;;;;;;;5011706;28;20038;-70
2022/12/10 11:38:14;;;;;;;320.45;48.60;;;;;;;;;;5010011;28;20562;-70
2022/12/10 11:40:49;;;;;;;320.30;52.10;;;;;;;;;;5010904;28;20441;-70
2022/12/10 11:43:25;;;;;;;300.92;47.13;;;;;;;;;;4993138;28;20522;-70
2022/12/10 11:46:09;;;;;;;285.27;45.17;;;;;;;;;;5011010;28;20113;-69
2022/12/10 11:48:42;;;;;;;318.13;47.10;;;;;;;;;;5020326;28;20389;-70
2022/12/10 11:51:33;;;;;;;419.38;55.85;;;;;;;;;;5016745;28;20250;-69
2022/12/10 11:53:59;;;;;;;365.10;51.22;;;;;;;;;;5011592;28;20065;-70
2022/12/10 11:56:34;;;;;;;658.88;67.50;;;;;;;;;;4990083;28;20034;-70
2022/12/10 11:59:07;;;;;;;417.13;50.60;;;;;;;;;;5011563;28;20029;-70
2022/12/10 12:01:33;;;;;;;372.95;51.40;;;;;;;;;;4967201;28;1196590;-70
2022/12/10 12:04:18;;;;;;;374.02;50.60;;;;;;;;;;5013757;28;20116;-70
2022/12/10 12:07:10;;;;;;;426.95;51.67;;;;;;;;;;4993828;28;20042;-70
2022/12/10 12:09:36;;;;;;;381.48;49.45;;;;;;;;;;5006734;28;20072;-70
2022/12/10 12:12:21;;;;;;;373.95;50.60;;;;;;;;;;5008048;28;20033;-70
2022/12/10 12:14:50;;;;;;;316.77;48.22;;;;;;;;;;5006178;28;20092;-69
2022/12/10 12:17:52;;;;;;;301.58;48.35;;;;;;;;;;5009769;28;20052;-70
2022/12/10 12:20:24;;;;;;;276.50;46.65;;;;;;;;;;4964660;28;20038;-70
2022/12/10 12:22:53;;;;;;;287.27;46.00;;;;;;;;;;5001560;28;20494;-70
2022/12/10 12:25:27;;;;;;;290.38;46.17;;;;;;;;;;5010176;28;20046;-70
2022/12/10 12:28:14;;;;;;;293.40;45.22;;;;;;;;;;5005409;28;20030;-70
2022/12/10 12:30:42;;;;;;;303.15;41.35;;;;;;;;;;5007847;28;20037;-69
2022/12/10 12:33:15;;;;;;;343.30;43.33;;;;;;;;;;5010857;28;20026;-70
2022/12/10 12:35:41;;;;;;;290.45;44.40;;;;;;;;;;5008333;28;20041;-69
2022/12/10 12:38:27;;;;;;;296.10;42.40;;;;;;;;;;5004733;28;20029;-69
2022/12/10 12:41:03;;;;;;;232.82;39.20;;;;;;;;;;5005374;28;20038;-69
2022/12/10 12:43:32;;;;;;;315.30;42.00;;;;;;;;;;5009677;28;20487;-70
2022/12/10 12:45:58;;;;;;;308.92;43.80;;;;;;;;;;4994882;23;20101;-85
2022/12/10 12:48:28;;;;;;;267.25;40.17;;;;;;;;;;4975054;28;20140;-81
2022/12/10 12:51:09;;;;;;;267.55;43.92;;;;;;;;;;4964169;28;20042;-80
2022/12/10 12:53:36;;;;;;;296.98;44.17;;;;;;;;;;4969078;28;20105;-81
2022/12/10 12:56:14;;;;;;;309.58;46.20;;;;;;;;;;4970207;28;20519;-84
2022/12/10 12:58:45;;;;;;;273.33;42.42;;;;;;;;;;4970990;28;20113;-80
2022/12/10 13:01:11;;;;;;;;;;;;;;;;;;4959167;28;20041;-81
2022/12/10 13:03:41;;;;;;;283.50;43.13;;;;;;;;;;4968951;28;19918;-80
2022/12/10 13:06:18;;;;;;;279.55;45.20;;;;;;;;;;4965887;28;20488;-80
2022/12/10 13:08:48;;;;;;;248.15;47.63;;;;;;;;;;4962369;28;20503;-80
2022/12/10 13:11:14;;;;;;;293.60;49.00;;;;;;;;;;4960370;28;20055;-80
2022/12/10 13:13:42;;;;;;;285.15;43.33;;;;;;;;;;4964847;28;20042;-80
2022/12/10 13:16:27;;;;;;;263.02;45.70;;;;;;;;;;4982646;28;20058;-80
2022/12/10 13:19:13;;;;;;;248.02;44.08;;;;;;;;;;4971581;28;20023;-80
2022/12/10 13:21:56;;;;;;;227.48;44.05;;;;;;;;;;4954417;28;20148;-82
2022/12/10 13:24:43;;;;;;;251.40;41.95;;;;;;;;;;4965363;28;20041;-82
2022/12/10 13:27:14;;;;;;;270.38;44.00;;;;;;;;;;4970233;28;20030;-81
2022/12/10 13:29:52;;;;;;;244.60;37.25;;;;;;;;;;4970659;28;20033;-81
2022/12/10 13:32:25;;;;;;;279.90;45.80;;;;;;;;;;4963998;28;20034;-82
2022/12/10 13:35:09;;;;;;;269.35;41.97;;;;;;;;;;4969062;28;20035;-79
2022/12/10 13:37:36;;;;;;;271.55;53.15;;;;;;;;;;4960522;28;20457;-80
2022/12/10 13:40:08;;;;;;;288.13;50.88;;;;;;;;;;4964145;28;20081;-81
2022/12/10 13:45:21;;;;;;;231.77;42.97;;;;;;;;;;4967426;28;20050;-80
2022/12/10 13:47:55;;;;;;;251.35;41.50;;;;;;;;;;4965248;28;20035;-80
2022/12/10 13:50:24;;;;;;;304.90;43.72;;;;;;;;;;4969406;28;20463;-80
2022/12/10 13:52:51;;;;;;;315.55;45.95;;;;;;;;;;4969175;28;20027;-82
2022/12/10 13:55:17;;;;;;;253.93;41.85;;;;;;;;;;4982775;28;20121;-80
2022/12/10 13:57:43;;;;;;;272.10;46.55;;;;;;;;;;4969341;28;20027;-80
2022/12/10 14:00:22;;;;;;;313.75;48.08;;;;;;;;;;4968227;28;20018;-80
2022/12/10 14:02:55;;;;;;;298.60;48.58;;;;;;;;;;4968483;28;20484;-82
2022/12/10 14:05:34;;;;;;;306.58;52.40;;;;;;;;;;4966347;28;20539;-80
2022/12/10 14:08:02;;;;;;;297.98;51.55;;;;;;;;;;4968874;28;20349;-80
2022/12/10 14:10:31;;;;;;;350.48;50.33;;;;;;;;;;4969906;28;20073;-81
2022/12/10 14:12:59;;;;;;;296.13;45.30;;;;;;;;;;4965179;28;20031;-86
2022/12/10 14:15:26;;;;;;;397.23;49.00;;;;;;;;;;4966520;28;20030;-80
2022/12/10 14:18:04;;;;;;;293.98;45.10;;;;;;;;;;4965838;28;20113;-80
2022/12/10 14:20:31;;;;;;;302.15;46.35;;;;;;;;;;4969562;28;20495;-79
2022/12/10 14:25:48;;;;;;;270.52;37.17;;;;;;;;;;4963317;28;20031;-79
2022/12/10 14:28:15;;;;;;;339.08;47.33;;;;;;;;;;4966635;28;20047;-80
2022/12/10 14:30:46;;;;;;;308.33;47.42;;;;;;;;;;4966644;28;20023;-80
2022/12/10 14:33:17;;;;;;;281.95;45.38;;;;;;;;;;4958766;28;20396;-80